createdAt,value
2017-04-23T00:00:37.917Z,0
2017-04-23T00:01:48.258Z,0
2017-04-23T00:02:58.265Z,0
2017-04-23T00:04:08.266Z,0
2017-04-23T00:05:18.302Z,0
2017-04-23T00:06:28.641Z,0
2017-04-23T00:07:38.974Z,0
2017-04-23T00:08:49.298Z,0
2017-04-23T00:09:59.672Z,0
2017-04-23T00:11:10.012Z,0
2017-04-23T00:12:20.339Z,0
2017-04-23T00:13:29.735Z,0
2017-04-23T00:14:39.443Z,0
2017-04-23T00:15:49.766Z,0
2017-04-23T00:16:59.785Z,0
2017-04-23T00:18:09.812Z,0
2017-04-23T00:19:20.159Z,0
2017-04-23T00:20:30.494Z,0
2017-04-23T00:21:40.821Z,0
2017-04-23T00:22:50.868Z,0
2017-04-23T00:24:00.900Z,0
2017-04-23T00:25:10.938Z,0
2017-04-23T00:26:21.270Z,0
2017-04-23T00:27:31.306Z,0
2017-04-23T00:28:41.321Z,0
2017-04-23T00:29:51.348Z,0
2017-04-23T00:31:01.683Z,0
2017-04-23T00:32:11.432Z,0
2017-04-23T00:33:21.448Z,0
2017-04-23T00:34:31.491Z,0
2017-04-23T00:35:41.829Z,0
2017-04-23T00:36:52.166Z,0
2017-04-23T00:38:02.182Z,0
2017-04-23T00:39:12.518Z,0
2017-04-23T00:40:22.547Z,0
2017-04-23T00:41:32.565Z,0
2017-04-23T00:42:42.917Z,0
2017-04-23T00:43:52.929Z,0
2017-04-23T00:45:03.270Z,0
2017-04-23T00:46:13.368Z,0
2017-04-23T00:47:23.390Z,0
2017-04-23T00:48:33.734Z,0
2017-04-23T00:49:43.756Z,0
2017-04-23T00:50:54.074Z,0
2017-04-23T00:52:03.773Z,0
2017-04-23T00:53:13.795Z,0
2017-04-23T00:54:23.822Z,0
2017-04-23T00:55:34.207Z,0
2017-04-23T00:56:44.563Z,0
2017-04-23T00:57:54.900Z,0
2017-04-23T00:59:04.926Z,0
2017-04-23T01:00:14.949Z,0
2017-04-23T01:01:24.657Z,0
2017-04-23T01:02:34.695Z,0
2017-04-23T01:03:44.389Z,0
2017-04-23T01:04:54.396Z,0
2017-04-23T01:06:04.752Z,0
2017-04-23T01:07:14.765Z,0
2017-04-23T01:08:25.094Z,0
2017-04-23T01:09:35.419Z,0
2017-04-23T01:10:45.428Z,0
2017-04-23T01:11:55.756Z,0
2017-04-23T01:13:06.083Z,0
2017-04-23T01:14:16.414Z,0
2017-04-23T01:15:26.757Z,0
2017-04-23T01:16:36.796Z,0
2017-04-23T01:17:47.139Z,0
2017-04-23T01:18:57.491Z,0
2017-04-23T01:20:07.509Z,0
2017-04-23T01:21:17.541Z,0
2017-04-23T01:22:27.583Z,0
2017-04-23T01:23:37.935Z,0
2017-04-23T01:24:47.947Z,0
2017-04-23T01:25:58.347Z,0
2017-04-23T01:27:08.354Z,0
2017-04-23T01:28:18.665Z,0
2017-04-23T01:29:28.687Z,0
2017-04-23T01:30:39.005Z,0
2017-04-23T01:31:49.044Z,0
2017-04-23T01:32:59.378Z,0
2017-04-23T01:34:09.727Z,0
2017-04-23T01:35:19.746Z,0
2017-04-23T01:36:30.088Z,0
2017-04-23T01:37:39.810Z,0
2017-04-23T01:38:49.822Z,0
2017-04-23T01:40:00.138Z,0
2017-04-23T01:41:10.468Z,0
2017-04-23T01:42:20.801Z,0
2017-04-23T01:43:31.174Z,0
2017-04-23T01:44:41.520Z,0
2017-04-23T01:45:51.567Z,0
2017-04-23T01:47:01.910Z,0
2017-04-23T01:48:12.246Z,0
2017-04-23T01:49:21.951Z,0
2017-04-23T01:50:32.281Z,0
2017-04-23T01:51:42.611Z,0
2017-04-23T01:52:52.626Z,0
2017-04-23T01:54:02.654Z,0
2017-04-23T01:55:12.985Z,0
2017-04-23T01:56:23.322Z,0
2017-04-23T01:57:33.659Z,0
2017-04-23T01:58:43.684Z,0
2017-04-23T01:59:54.021Z,0
2017-04-23T02:01:04.351Z,0
2017-04-23T02:02:14.373Z,0
2017-04-23T02:03:24.740Z,0
2017-04-23T02:04:35.081Z,0
2017-04-23T02:05:45.410Z,0
2017-04-23T02:06:55.737Z,0
2017-04-23T02:08:05.755Z,0
2017-04-23T02:09:16.142Z,0
2017-04-23T02:10:26.491Z,0
2017-04-23T02:11:36.499Z,0
2017-04-23T02:12:46.531Z,0
2017-04-23T02:13:56.543Z,0
2017-04-23T02:15:06.874Z,0
2017-04-23T02:16:16.928Z,0
2017-04-23T02:17:27.283Z,0
2017-04-23T02:18:37.310Z,0
2017-04-23T02:19:47.642Z,0
2017-04-23T02:20:57.991Z,0
2017-04-23T02:22:08.011Z,0
2017-04-23T02:23:18.352Z,0
2017-04-23T02:24:28.377Z,0
2017-04-23T02:25:38.706Z,0
2017-04-23T02:26:49.016Z,0
2017-04-23T02:27:59.034Z,0
2017-04-23T02:29:09.382Z,0
2017-04-23T02:30:19.701Z,0
2017-04-23T02:31:30.040Z,0
2017-04-23T02:32:40.067Z,0
2017-04-23T02:33:50.398Z,0
2017-04-23T02:35:00.739Z,0
2017-04-23T02:36:10.755Z,0
2017-04-23T02:37:20.453Z,0
2017-04-23T02:38:30.790Z,0
2017-04-23T02:39:40.516Z,0
2017-04-23T02:40:50.838Z,0
2017-04-23T02:42:01.182Z,0
2017-04-23T02:43:11.511Z,0
2017-04-23T02:44:21.841Z,0
2017-04-23T02:45:32.190Z,0
2017-04-23T02:46:42.206Z,0
2017-04-23T02:47:52.544Z,0
2017-04-23T02:49:02.265Z,0
2017-04-23T02:50:12.279Z,0
2017-04-23T02:51:22.598Z,0
2017-04-23T02:52:32.610Z,0
2017-04-23T02:53:42.964Z,0
2017-04-23T02:54:52.985Z,0
2017-04-23T02:56:03.329Z,0
2017-04-23T02:57:13.672Z,0
2017-04-23T02:58:23.700Z,0
2017-04-23T02:59:34.033Z,0
2017-04-23T03:00:44.353Z,0
2017-04-23T03:01:54.373Z,0
2017-04-23T03:32:56.083Z,0
2017-04-23T03:34:06.402Z,0
2017-04-23T03:35:16.412Z,0
2017-04-23T03:36:26.734Z,0
2017-04-23T03:37:37.075Z,0
2017-04-23T03:38:47.463Z,0
2017-04-23T03:39:57.795Z,0
2017-04-23T03:41:08.149Z,0
2017-04-23T03:42:18.143Z,0
2017-04-23T03:43:28.169Z,0
2017-04-23T03:44:38.546Z,0
2017-04-23T03:45:48.881Z,0
2017-04-23T03:46:58.915Z,0
2017-04-23T03:48:08.943Z,0
2017-04-23T03:49:19.279Z,0
2017-04-23T03:50:29.295Z,5
2017-04-23T03:51:39.612Z,5
2017-04-23T03:52:49.974Z,5
2017-04-23T03:54:00.007Z,5
2017-04-23T03:55:10.008Z,5
2017-04-23T03:56:20.332Z,5
2017-04-23T03:57:30.675Z,5
2017-04-23T03:58:41.018Z,10
2017-04-23T03:59:51.030Z,10
2017-04-23T04:01:01.367Z,10
2017-04-23T04:02:11.710Z,10
2017-04-23T04:03:21.732Z,10
2017-04-23T04:04:32.096Z,15
2017-04-23T04:05:42.433Z,15
2017-04-23T04:06:52.457Z,15
2017-04-23T04:08:02.790Z,15
2017-04-23T04:09:13.129Z,15
2017-04-23T04:10:23.136Z,15
2017-04-23T04:11:33.158Z,20
2017-04-23T04:12:42.865Z,20
2017-04-23T04:13:53.239Z,20
2017-04-23T04:15:03.584Z,20
2017-04-23T04:16:13.924Z,20
2017-04-23T04:17:23.624Z,25
2017-04-23T04:18:33.973Z,25
2017-04-23T04:19:44.083Z,25
2017-04-23T04:20:54.101Z,25
2017-04-23T04:22:04.428Z,25
2017-04-23T04:23:14.479Z,25
2017-04-23T04:24:24.505Z,30
2017-04-23T04:25:34.517Z,30
2017-04-23T04:26:44.878Z,30
2017-04-23T04:27:54.906Z,30
2017-04-23T04:29:05.241Z,35
2017-04-23T04:30:15.568Z,35
2017-04-23T04:31:25.884Z,40
2017-04-23T04:32:35.917Z,40
2017-04-23T04:33:46.261Z,45
2017-04-23T04:34:56.601Z,50
2017-04-23T04:36:06.613Z,55
2017-04-23T04:37:16.719Z,55
2017-04-23T04:38:26.773Z,60
2017-04-23T04:39:37.121Z,60
2017-04-23T04:40:46.840Z,65
2017-04-23T04:41:57.203Z,70
2017-04-23T04:43:07.534Z,85
2017-04-23T04:44:17.893Z,145
2017-04-23T04:45:28.245Z,80
2017-04-23T04:46:38.827Z,105
2017-04-23T04:47:49.169Z,195
2017-04-23T04:48:59.746Z,155
2017-04-23T04:50:09.779Z,165
2017-04-23T04:51:20.129Z,120
2017-04-23T04:52:30.455Z,190
2017-04-23T04:53:40.826Z,165
2017-04-23T04:54:51.175Z,95
2017-04-23T04:56:01.511Z,95
2017-04-23T04:57:11.213Z,90
2017-04-23T04:58:21.543Z,90
2017-04-23T04:59:31.878Z,115
2017-04-23T05:00:42.203Z,175
2017-04-23T05:01:52.216Z,270
2017-04-23T05:03:02.552Z,300
2017-04-23T05:04:12.890Z,295
2017-04-23T05:05:23.210Z,295
2017-04-23T05:06:33.557Z,300
2017-04-23T05:07:43.589Z,300
2017-04-23T05:08:53.925Z,315
2017-04-23T05:10:04.278Z,320
2017-04-23T05:11:14.609Z,300
2017-04-23T05:12:24.641Z,295
2017-04-23T05:13:34.988Z,285
2017-04-23T05:14:45.320Z,280
2017-04-23T05:15:55.669Z,290
2017-04-23T05:17:05.688Z,290
2017-04-23T05:18:16.073Z,295
2017-04-23T05:19:26.110Z,290
2017-04-23T05:20:36.459Z,290
2017-04-23T05:21:46.829Z,295
2017-04-23T05:22:57.178Z,300
2017-04-23T05:24:07.517Z,310
2017-04-23T05:25:17.861Z,310
2017-04-23T05:26:27.881Z,315
2017-04-23T05:27:38.222Z,310
2017-04-23T05:28:48.577Z,310
2017-04-23T05:29:58.928Z,295
2017-04-23T05:31:09.279Z,185
2017-04-23T05:32:19.651Z,165
2017-04-23T05:33:29.909Z,270
2017-04-23T05:34:40.257Z,255
2017-04-23T05:35:50.606Z,245
2017-04-23T05:37:00.612Z,160
2017-04-23T05:38:10.632Z,200
2017-04-23T05:39:20.967Z,175
2017-04-23T05:40:31.323Z,285
2017-04-23T05:41:41.655Z,145
2017-04-23T05:42:51.990Z,140
2017-04-23T05:44:02.347Z,135
2017-04-23T05:45:12.678Z,140
2017-04-23T05:46:23.029Z,150
2017-04-23T05:47:33.357Z,140
2017-04-23T05:48:43.707Z,135
2017-04-23T05:49:54.041Z,125
2017-04-23T05:51:04.084Z,125
2017-04-23T05:52:14.415Z,120
2017-04-23T05:53:24.422Z,120
2017-04-23T05:54:34.435Z,120
2017-04-23T05:55:44.775Z,125
2017-04-23T05:56:54.804Z,130
2017-04-23T05:58:04.839Z,140
2017-04-23T05:59:14.873Z,140
2017-04-23T06:00:25.204Z,135
2017-04-23T06:01:35.229Z,145
2017-04-23T06:02:45.556Z,130
2017-04-23T06:03:55.605Z,140
2017-04-23T06:05:05.624Z,105
2017-04-23T06:06:15.987Z,95
2017-04-23T06:07:26.324Z,100
2017-04-23T06:08:36.665Z,95
2017-04-23T06:09:47.030Z,100
2017-04-23T06:10:57.402Z,105
2017-04-23T06:12:07.753Z,105
2017-04-23T06:13:18.113Z,100
2017-04-23T06:14:28.489Z,90
2017-04-23T06:15:38.205Z,90
2017-04-23T06:16:48.531Z,95
2017-04-23T06:17:58.889Z,115
2017-04-23T06:19:09.249Z,125
2017-04-23T06:20:19.593Z,135
2017-04-23T06:21:29.610Z,140
2017-04-23T06:22:39.961Z,150
2017-04-23T06:23:50.297Z,150
2017-04-23T06:25:00.631Z,150
2017-04-23T06:26:10.979Z,165
2017-04-23T06:27:20.982Z,170
2017-04-23T06:28:30.701Z,170
2017-04-23T06:29:40.725Z,165
2017-04-23T06:30:51.060Z,160
2017-04-23T06:32:01.105Z,160
2017-04-23T06:33:11.441Z,160
2017-04-23T06:34:21.773Z,155
2017-04-23T06:35:32.120Z,155
2017-04-23T06:36:42.156Z,155
2017-04-23T06:37:51.881Z,155
2017-04-23T06:39:02.209Z,160
2017-04-23T06:40:12.524Z,160
2017-04-23T06:41:22.872Z,165
2017-04-23T06:42:32.885Z,170
2017-04-23T06:43:42.900Z,165
2017-04-23T06:44:53.241Z,170
2017-04-23T06:46:03.255Z,170
2017-04-23T06:47:13.586Z,170
2017-04-23T06:48:23.628Z,170
2017-04-23T06:49:33.682Z,175
2017-04-23T06:50:43.699Z,170
2017-04-23T06:51:53.718Z,175
2017-04-23T06:53:04.051Z,165
2017-04-23T06:54:14.376Z,175
2017-04-23T06:55:24.390Z,180
2017-04-23T06:56:34.730Z,150
2017-04-23T06:57:45.047Z,180
2017-04-23T06:58:55.084Z,185
2017-04-23T07:00:05.419Z,185
2017-04-23T07:01:15.448Z,180
2017-04-23T07:02:25.464Z,170
2017-04-23T07:03:35.799Z,175
2017-04-23T07:04:46.143Z,175
2017-04-23T07:05:56.473Z,180
2017-04-23T07:07:06.856Z,185
2017-04-23T07:08:16.872Z,135
2017-04-23T07:09:27.230Z,135
2017-04-23T07:10:37.258Z,170
2017-04-23T07:11:47.297Z,175
2017-04-23T07:12:57.622Z,175
2017-04-23T07:14:07.970Z,175
2017-04-23T07:15:18.339Z,175
2017-04-23T07:16:28.677Z,175
2017-04-23T07:17:39.021Z,180
2017-04-23T07:18:49.382Z,180
2017-04-23T07:19:59.716Z,180
2017-04-23T07:21:10.060Z,185
2017-04-23T07:22:20.452Z,185
2017-04-23T07:23:30.506Z,205
2017-04-23T07:24:40.212Z,215
2017-04-23T07:25:50.563Z,225
2017-04-23T07:27:00.912Z,220
2017-04-23T07:28:11.248Z,225
2017-04-23T07:29:21.594Z,235
2017-04-23T07:30:31.945Z,255
2017-04-23T07:31:42.281Z,250
2017-04-23T07:32:52.669Z,255
2017-04-23T07:34:02.389Z,195
2017-04-23T07:35:12.721Z,250
2017-04-23T07:36:22.749Z,260
2017-04-23T07:37:32.798Z,295
2017-04-23T07:38:42.848Z,290
2017-04-23T07:39:53.175Z,275
2017-04-23T07:41:03.524Z,265
2017-04-23T07:42:13.561Z,190
2017-04-23T07:43:23.914Z,210
2017-04-23T07:44:33.959Z,225
2017-04-23T07:45:44.279Z,240
2017-04-23T07:46:54.619Z,265
2017-04-23T07:48:04.941Z,190
2017-04-23T07:49:15.276Z,185
2017-04-23T07:50:25.332Z,200
2017-04-23T07:51:35.658Z,235
2017-04-23T07:52:45.988Z,175
2017-04-23T07:53:56.360Z,255
2017-04-23T07:55:06.707Z,245
2017-04-23T07:56:17.037Z,255
2017-04-23T07:57:27.369Z,265
2017-04-23T07:58:37.700Z,255
2017-04-23T07:59:48.028Z,265
2017-04-23T08:00:57.419Z,285
2017-04-23T08:02:06.830Z,220
2017-04-23T08:03:17.194Z,185
2017-04-23T08:04:26.587Z,170
2017-04-23T08:05:36.917Z,200
2017-04-23T08:06:46.935Z,240
2017-04-23T08:07:57.285Z,235
2017-04-23T08:09:07.308Z,235
2017-04-23T08:10:17.655Z,245
2017-04-23T08:11:28.025Z,245
2017-04-23T08:12:38.059Z,240
2017-04-23T08:13:48.096Z,255
2017-04-23T08:14:58.118Z,210
2017-04-23T08:16:08.137Z,175
2017-04-23T08:17:18.149Z,230
2017-04-23T08:18:28.492Z,150
2017-04-23T08:19:38.833Z,200
2017-04-23T08:20:49.184Z,275
2017-04-23T08:21:59.536Z,200
2017-04-23T08:23:09.873Z,295
2017-04-23T08:24:19.905Z,275
2017-04-23T08:25:30.247Z,285
2017-04-23T08:26:40.576Z,295
2017-04-23T08:27:50.618Z,230
2017-04-23T08:29:00.648Z,295
2017-04-23T08:30:10.993Z,300
2017-04-23T08:31:21.357Z,220
2017-04-23T08:32:31.701Z,235
2017-04-23T08:33:42.041Z,185
2017-04-23T08:34:51.772Z,185
2017-04-23T08:36:02.117Z,180
2017-04-23T08:37:12.163Z,185
2017-04-23T08:38:22.479Z,215
2017-04-23T08:39:32.501Z,315
2017-04-23T08:40:42.849Z,240
2017-04-23T08:41:53.196Z,250
2017-04-23T08:43:03.227Z,260
2017-04-23T08:44:13.579Z,295
2017-04-23T08:45:23.930Z,355
2017-04-23T08:46:34.271Z,345
2017-04-23T08:47:44.609Z,220
2017-04-23T08:48:54.959Z,195
2017-04-23T08:50:05.302Z,185
2017-04-23T08:51:15.652Z,175
2017-04-23T08:52:25.999Z,170
2017-04-23T08:53:35.748Z,170
2017-04-23T08:54:45.764Z,170
2017-04-23T08:55:56.116Z,175
2017-04-23T08:57:06.468Z,180
2017-04-23T08:58:16.824Z,195
2017-04-23T08:59:27.156Z,200
2017-04-23T09:00:37.513Z,195
2017-04-23T09:01:47.877Z,190
2017-04-23T09:02:58.235Z,185
2017-04-23T09:04:08.573Z,195
2017-04-23T09:05:18.615Z,160
2017-04-23T09:06:29.001Z,185
2017-04-23T09:07:39.408Z,225
2017-04-23T09:08:49.761Z,240
2017-04-23T09:09:59.787Z,255
2017-04-23T09:11:10.119Z,275
2017-04-23T09:12:20.479Z,290
2017-04-23T09:13:30.505Z,310
2017-04-23T09:14:40.835Z,330
2017-04-23T09:15:51.157Z,350
2017-04-23T09:17:01.507Z,390
2017-04-23T09:18:11.871Z,405
2017-04-23T09:19:22.235Z,305
2017-04-23T09:20:32.588Z,295
2017-04-23T09:21:42.928Z,290
2017-04-23T09:22:53.257Z,290
2017-04-23T09:24:03.598Z,290
2017-04-23T09:25:13.935Z,280
2017-04-23T09:26:23.950Z,310
2017-04-23T09:27:34.002Z,310
2017-04-23T09:28:44.051Z,350
2017-04-23T09:29:54.375Z,285
2017-04-23T09:31:04.708Z,250
2017-04-23T09:32:14.719Z,215
2017-04-23T09:33:25.065Z,210
2017-04-23T09:34:35.425Z,245
2017-04-23T09:35:45.819Z,245
2017-04-23T09:36:55.841Z,245
2017-04-23T09:38:06.194Z,255
2017-04-23T09:39:16.225Z,255
2017-04-23T09:40:26.238Z,260
2017-04-23T09:41:36.256Z,260
2017-04-23T09:42:46.584Z,270
2017-04-23T09:43:56.622Z,285
2017-04-23T09:45:06.658Z,285
2017-04-23T09:46:16.672Z,290
2017-04-23T09:47:27.017Z,300
2017-04-23T09:48:37.349Z,310
2017-04-23T09:49:47.724Z,315
2017-04-23T09:50:58.078Z,330
2017-04-23T09:52:08.123Z,340
2017-04-23T09:53:18.166Z,350
2017-04-23T09:54:28.507Z,350
2017-04-23T09:55:38.560Z,325
2017-04-23T09:56:48.900Z,225
2017-04-23T09:57:58.630Z,285
2017-04-23T09:59:08.674Z,230
2017-04-23T10:00:18.447Z,235
2017-04-23T10:01:28.492Z,270
2017-04-23T10:02:38.540Z,275
2017-04-23T10:03:48.576Z,295
2017-04-23T10:04:58.298Z,285
2017-04-23T10:06:08.645Z,270
2017-04-23T10:07:18.677Z,240
2017-04-23T10:08:29.034Z,255
2017-04-23T10:09:39.373Z,250
2017-04-23T10:10:49.714Z,255
2017-04-23T10:11:59.793Z,255
2017-04-23T10:13:10.130Z,255
2017-04-23T10:14:20.479Z,255
2017-04-23T10:15:30.868Z,255
2017-04-23T10:16:41.235Z,255
2017-04-23T10:17:51.595Z,250
2017-04-23T10:19:01.662Z,250
2017-04-23T10:20:11.689Z,245
2017-04-23T10:21:21.421Z,255
2017-04-23T10:22:31.765Z,255
2017-04-23T10:23:42.109Z,255
2017-04-23T10:24:52.462Z,250
2017-04-23T10:26:02.514Z,255
2017-04-23T10:27:12.850Z,255
2017-04-23T10:28:23.209Z,260
2017-04-23T10:29:33.565Z,260
2017-04-23T10:30:43.918Z,260
2017-04-23T10:31:53.958Z,260
2017-04-23T10:33:03.674Z,260
2017-04-23T10:34:13.387Z,270
2017-04-23T10:35:23.452Z,275
2017-04-23T10:36:33.464Z,290
2017-04-23T10:37:43.201Z,310
2017-04-23T10:38:53.564Z,325
2017-04-23T10:40:03.913Z,340
2017-04-23T10:41:14.250Z,335
2017-04-23T10:42:24.289Z,315
2017-04-23T10:43:34.316Z,215
2017-04-23T10:44:44.644Z,165
2017-04-23T10:45:54.664Z,155
2017-04-23T10:47:04.685Z,285
2017-04-23T10:48:15.047Z,275
2017-04-23T10:49:25.428Z,275
2017-04-23T10:50:35.761Z,275
2017-04-23T10:51:46.095Z,280
2017-04-23T10:52:55.818Z,285
2017-04-23T10:54:05.846Z,180
2017-04-23T10:55:15.869Z,300
2017-04-23T10:56:26.224Z,300
2017-04-23T10:57:36.574Z,300
2017-04-23T10:58:46.639Z,170
2017-04-23T10:59:56.965Z,180
2017-04-23T11:01:07.314Z,180
2017-04-23T11:02:17.047Z,215
2017-04-23T11:03:27.072Z,340
2017-04-23T11:04:37.401Z,210
2017-04-23T11:05:47.117Z,365
2017-04-23T11:06:57.473Z,355
2017-04-23T11:08:07.836Z,240
2017-04-23T11:09:18.169Z,230
2017-04-23T11:10:28.523Z,200
2017-04-23T11:11:38.916Z,185
2017-04-23T11:12:49.277Z,175
2017-04-23T11:13:59.625Z,180
2017-04-23T11:15:09.361Z,190
2017-04-23T11:16:19.379Z,225
2017-04-23T11:17:29.403Z,240
2017-04-23T11:18:39.737Z,265
2017-04-23T11:19:50.089Z,380
2017-04-23T11:21:00.435Z,405
2017-04-23T11:22:10.767Z,390
2017-04-23T11:23:21.099Z,370
2017-04-23T11:24:31.442Z,355
2017-04-23T11:25:41.791Z,280
2017-04-23T11:26:52.133Z,260
2017-04-23T11:28:02.164Z,185
2017-04-23T11:29:12.177Z,175
2017-04-23T11:30:22.194Z,315
2017-04-23T11:31:32.550Z,300
2017-04-23T11:32:42.888Z,150
2017-04-23T11:33:53.264Z,135
2017-04-23T11:35:03.294Z,125
2017-04-23T11:36:13.655Z,120
2017-04-23T11:37:24.029Z,120
2017-04-23T11:38:34.615Z,115
2017-04-23T11:39:44.643Z,120
2017-04-23T11:40:54.668Z,125
2017-04-23T11:42:04.702Z,135
2017-04-23T11:43:14.417Z,150
2017-04-23T11:44:24.760Z,135
2017-04-23T11:45:35.201Z,225
2017-04-23T11:46:45.558Z,280
2017-04-23T11:47:55.894Z,285
2017-04-23T11:49:05.932Z,290
2017-04-23T11:50:15.984Z,245
2017-04-23T11:51:26.311Z,160
2017-04-23T11:52:36.662Z,185
2017-04-23T11:53:47.025Z,115
2017-04-23T11:54:57.366Z,95
2017-04-23T11:56:07.737Z,80
2017-04-23T11:57:18.083Z,70
2017-04-23T11:58:28.464Z,70
2017-04-23T11:59:38.817Z,75
2017-04-23T12:00:49.170Z,90
2017-04-23T12:01:59.519Z,105
2017-04-23T12:03:09.862Z,125
2017-04-23T12:04:20.202Z,150
2017-04-23T12:05:30.210Z,170
2017-04-23T12:06:40.566Z,200
2017-04-23T12:07:50.922Z,235
2017-04-23T12:09:01.273Z,275
2017-04-23T12:10:11.625Z,225
2017-04-23T12:11:21.665Z,200
2017-04-23T12:12:32.002Z,280
2017-04-23T12:13:42.029Z,275
2017-04-23T12:14:52.061Z,275
2017-04-23T12:16:02.388Z,280
2017-04-23T12:17:12.736Z,290
2017-04-23T12:18:23.076Z,310
2017-04-23T12:19:33.452Z,315
2017-04-23T12:20:43.488Z,205
2017-04-23T12:21:53.525Z,200
2017-04-23T12:23:03.552Z,190
2017-04-23T12:24:13.893Z,170
2017-04-23T12:25:23.919Z,130
2017-04-23T12:26:33.948Z,95
2017-04-23T12:27:44.307Z,75
2017-04-23T12:28:54.666Z,75
2017-04-23T12:30:04.702Z,75
2017-04-23T12:31:14.753Z,85
2017-04-23T12:32:25.095Z,100
2017-04-23T12:33:34.505Z,120
2017-04-23T12:34:44.921Z,155
2017-04-23T12:35:55.327Z,185
2017-04-23T12:37:05.771Z,320
2017-04-23T12:38:16.278Z,325
2017-04-23T12:39:26.735Z,350
2017-04-23T12:40:36.529Z,340
2017-04-23T12:41:46.355Z,330
2017-04-23T12:42:56.706Z,315
2017-04-23T12:44:07.186Z,305
2017-04-23T12:45:17.546Z,300
2017-04-23T12:46:28.036Z,290
2017-04-23T12:47:38.568Z,290
2017-04-23T12:48:49.107Z,285
2017-04-23T12:49:59.550Z,285
2017-04-23T12:51:09.979Z,280
2017-04-23T12:52:20.388Z,275
2017-04-23T12:53:30.928Z,265
2017-04-23T12:54:41.391Z,260
2017-04-23T12:55:51.669Z,255
2017-04-23T12:57:01.838Z,255
2017-04-23T12:58:12.282Z,250
2017-04-23T12:59:22.746Z,245
2017-04-23T13:00:33.168Z,245
2017-04-23T13:01:43.333Z,245
2017-04-23T13:02:53.793Z,245
2017-04-23T13:04:04.181Z,245
2017-04-23T13:05:14.584Z,240
2017-04-23T13:06:25.029Z,240
2017-04-23T13:07:35.454Z,240
2017-04-23T13:08:45.573Z,240
2017-04-23T13:09:56.001Z,225
2017-04-23T13:11:06.421Z,230
2017-04-23T13:12:16.493Z,245
2017-04-23T13:13:26.926Z,245
2017-04-23T13:14:37.389Z,245
2017-04-23T13:15:47.770Z,240
2017-04-23T13:16:58.226Z,245
2017-04-23T13:18:08.307Z,240
2017-04-23T13:19:18.786Z,240
2017-04-23T13:20:28.997Z,240
2017-04-23T13:21:39.439Z,245
2017-04-23T13:22:49.850Z,245
2017-04-23T13:24:00.275Z,245
2017-04-23T13:25:10.364Z,250
2017-04-23T13:26:20.165Z,250
2017-04-23T13:27:30.242Z,255
2017-04-23T13:28:40.309Z,250
2017-04-23T13:29:50.515Z,270
2017-04-23T13:31:00.066Z,205
2017-04-23T13:32:10.513Z,265
2017-04-23T13:33:20.578Z,135
2017-04-23T13:34:31.029Z,130
2017-04-23T13:35:41.497Z,125
2017-04-23T13:36:51.301Z,120
2017-04-23T13:38:01.937Z,120
2017-04-23T13:39:12.392Z,115
2017-04-23T13:40:23.214Z,120
2017-04-23T13:41:33.027Z,125
2017-04-23T13:42:43.519Z,135
2017-04-23T13:43:53.647Z,135
2017-04-23T13:45:04.041Z,135
2017-04-23T13:46:14.128Z,130
2017-04-23T13:47:23.949Z,130
2017-04-23T13:48:34.331Z,135
2017-04-23T13:49:44.834Z,145
2017-04-23T13:50:55.233Z,155
2017-04-23T13:52:05.658Z,175
2017-04-23T13:53:16.065Z,175
2017-04-23T13:54:26.217Z,170
2017-04-23T13:55:36.609Z,160
2017-04-23T13:56:47.035Z,160
2017-04-23T13:57:57.235Z,260
2017-04-23T13:59:07.669Z,275
2017-04-23T14:00:18.146Z,280
2017-04-23T14:01:28.612Z,275
2017-04-23T14:02:39.018Z,275
2017-04-23T14:03:49.805Z,270
2017-04-23T14:04:59.993Z,220
2017-04-23T14:06:10.150Z,245
2017-04-23T14:07:20.663Z,140
2017-04-23T14:08:30.817Z,175
2017-04-23T14:09:41.454Z,235
2017-04-23T14:10:52.651Z,235
2017-04-23T14:12:04.929Z,230
2017-04-23T14:13:15.869Z,230
2017-04-23T14:14:26.502Z,220
2017-04-23T14:15:37.546Z,225
2017-04-23T14:16:47.796Z,220
2017-04-23T14:17:59.023Z,220
2017-04-23T14:19:10.656Z,220
2017-04-23T14:20:22.365Z,160
2017-04-23T14:21:33.270Z,125
2017-04-23T14:22:44.061Z,130
2017-04-23T14:23:54.359Z,135
2017-04-23T14:25:04.826Z,145
2017-04-23T14:26:15.317Z,155
2017-04-23T14:27:25.738Z,160
2017-04-23T14:28:36.186Z,175
2017-04-23T14:29:46.575Z,240
2017-04-23T14:30:57.015Z,210
2017-04-23T14:32:06.762Z,205
2017-04-23T14:33:17.184Z,225
2017-04-23T14:34:27.595Z,190
2017-04-23T14:35:37.998Z,185
2017-04-23T14:36:48.105Z,180
2017-04-23T14:37:58.512Z,170
2017-04-23T14:39:08.699Z,165
2017-04-23T14:40:19.080Z,160
2017-04-23T14:41:29.165Z,150
2017-04-23T14:42:39.549Z,145
2017-04-23T14:43:49.923Z,135
2017-04-23T14:45:00.326Z,150
2017-04-23T14:46:10.721Z,125
2017-04-23T14:47:20.880Z,120
2017-04-23T14:48:30.946Z,115
2017-04-23T14:49:41.314Z,115
2017-04-23T14:50:51.686Z,115
2017-04-23T14:52:02.063Z,120
2017-04-23T14:53:12.152Z,125
2017-04-23T14:54:22.206Z,130
2017-04-23T14:55:32.230Z,125
2017-04-23T14:56:42.688Z,130
2017-04-23T14:57:53.046Z,130
2017-04-23T14:59:03.457Z,130
2017-04-23T15:00:13.526Z,125
2017-04-23T15:01:23.885Z,120
2017-04-23T15:02:34.266Z,115
2017-04-23T15:03:44.363Z,115
2017-04-23T15:04:54.416Z,110
2017-04-23T15:06:04.792Z,105
2017-04-23T15:07:15.171Z,105
2017-04-23T15:08:25.581Z,105
2017-04-23T15:09:35.939Z,105
2017-04-23T15:10:46.318Z,110
2017-04-23T15:11:56.357Z,110
2017-04-23T15:13:06.742Z,110
2017-04-23T15:14:17.138Z,110
2017-04-23T15:15:27.486Z,105
2017-04-23T15:16:37.852Z,105
2017-04-23T15:17:48.211Z,105
2017-04-23T15:18:58.583Z,110
2017-04-23T15:20:08.327Z,110
2017-04-23T15:21:18.694Z,105
2017-04-23T15:22:29.061Z,105
2017-04-23T15:23:39.108Z,105
2017-04-23T15:24:49.155Z,105
2017-04-23T15:25:59.231Z,105
2017-04-23T15:27:09.287Z,105
2017-04-23T15:28:19.657Z,110
2017-04-23T15:29:29.704Z,110
2017-04-23T15:30:40.067Z,115
2017-04-23T15:31:50.447Z,115
2017-04-23T15:33:00.821Z,110
2017-04-23T15:34:11.177Z,105
2017-04-23T15:35:21.520Z,100
2017-04-23T15:36:31.861Z,100
2017-04-23T15:37:42.206Z,105
2017-04-23T15:38:52.567Z,105
2017-04-23T15:40:02.935Z,110
2017-04-23T15:41:13.027Z,110
2017-04-23T15:42:23.387Z,105
2017-04-23T15:43:33.758Z,105
2017-04-23T15:44:43.795Z,100
2017-04-23T15:45:53.516Z,110
2017-04-23T15:47:03.861Z,105
2017-04-23T15:48:14.225Z,105
2017-04-23T15:49:23.655Z,105
2017-04-23T15:50:34.072Z,100
2017-04-23T15:51:44.433Z,100
2017-04-23T15:52:54.165Z,95
2017-04-23T15:54:04.553Z,95
2017-04-23T15:55:14.292Z,100
2017-04-23T15:56:24.642Z,100
2017-04-23T15:57:34.680Z,105
2017-04-23T15:58:45.081Z,105
2017-04-23T15:59:55.457Z,100
2017-04-23T16:01:05.825Z,95
2017-04-23T16:02:15.842Z,95
2017-04-23T16:03:25.929Z,90
2017-04-23T16:04:36.290Z,90
2017-04-23T16:05:46.673Z,100
2017-04-23T16:06:56.732Z,105
2017-04-23T16:08:06.774Z,110
2017-04-23T16:09:16.849Z,110
2017-04-23T16:10:27.232Z,110
2017-04-23T16:11:37.303Z,115
2017-04-23T16:12:47.366Z,105
2017-04-23T16:13:57.726Z,110
2017-04-23T16:15:08.058Z,110
2017-04-23T16:16:18.122Z,100
2017-04-23T16:17:28.168Z,95
2017-04-23T16:18:38.567Z,95
2017-04-23T16:19:48.902Z,100
2017-04-23T16:20:59.247Z,100
2017-04-23T16:22:09.607Z,100
2017-04-23T16:23:19.975Z,100
2017-04-23T16:24:30.039Z,110
2017-04-23T16:25:40.093Z,105
2017-04-23T16:26:50.112Z,100
2017-04-23T16:28:00.134Z,90
2017-04-23T16:29:10.499Z,85
2017-04-23T16:30:20.864Z,85
2017-04-23T16:31:30.917Z,85
2017-04-23T16:32:40.961Z,95
2017-04-23T16:33:51.318Z,95
2017-04-23T16:35:01.703Z,95
2017-04-23T16:36:11.714Z,80
2017-04-23T16:37:22.130Z,75
2017-04-23T16:38:32.557Z,65
2017-04-23T16:39:43.012Z,65
2017-04-23T16:40:53.057Z,65
2017-04-23T16:42:03.439Z,60
2017-04-23T16:43:13.796Z,65
2017-04-23T16:44:24.153Z,60
2017-04-23T16:45:34.191Z,60
2017-04-23T16:46:44.230Z,55
2017-04-23T16:47:53.971Z,45
2017-04-23T16:49:03.999Z,40
2017-04-23T16:50:14.037Z,40
2017-04-23T16:51:24.071Z,35
2017-04-23T16:52:34.428Z,35
2017-04-23T16:53:44.790Z,35
2017-04-23T16:54:55.176Z,35